sensor_id;sensor_type;location;lat;lon;timestamp;temperature;humidity
5723;DHT22;2886;49.722;8.612;2022-09-19T00:01:23;7.80;99.90
5723;DHT22;2886;49.722;8.612;2022-09-19T00:04:08;7.80;99.90
5723;DHT22;2886;49.722;8.612;2022-09-19T00:06:36;7.80;99.90
5723;DHT22;2886;49.722;8.612;2022-09-19T00:09:04;7.80;99.90
5723;DHT22;2886;49.722;8.612;2022-09-19T00:11:30;7.80;99.90
5723;DHT22;2886;49.722;8.612;2022-09-19T00:13:58;7.70;99.90
5723;DHT22;2886;49.722;8.612;2022-09-19T00:18:53;7.80;99.90
5723;DHT22;2886;49.722;8.612;2022-09-19T00:21:28;7.70;99.90
5723;DHT22;2886;49.722;8.612;2022-09-19T00:23:54;7.80;99.90
5723;DHT22;2886;49.722;8.612;2022-09-19T00:26:38;7.80;99.90
5723;DHT22;2886;49.722;8.612;2022-09-19T00:29:08;7.80;99.90
5723;DHT22;2886;49.722;8.612;2022-09-19T00:31:34;7.80;99.90
5723;DHT22;2886;49.722;8.612;2022-09-19T00:34:01;7.80;99.90
5723;DHT22;2886;49.722;8.612;2022-09-19T00:36:35;7.80;99.90
5723;DHT22;2886;49.722;8.612;2022-09-19T00:39:00;7.90;99.90
5723;DHT22;2886;49.722;8.612;2022-09-19T00:41:26;8.00;99.90
5723;DHT22;2886;49.722;8.612;2022-09-19T00:43:56;8.00;99.90
5723;DHT22;2886;49.722;8.612;2022-09-19T00:46:24;8.10;99.90
5723;DHT22;2886;49.722;8.612;2022-09-19T00:49:04;8.10;99.90
5723;DHT22;2886;49.722;8.612;2022-09-19T00:51:35;8.10;99.90
5723;DHT22;2886;49.722;8.612;2022-09-19T00:54:05;8.00;99.90
5723;DHT22;2886;49.722;8.612;2022-09-19T00:56:33;8.00;99.90
5723;DHT22;2886;49.722;8.612;2022-09-19T00:59:02;7.90;99.90
5723;DHT22;2886;49.722;8.612;2022-09-19T01:01:28;7.90;99.90
5723;DHT22;2886;49.722;8.612;2022-09-19T01:03:54;7.90;99.90
5723;DHT22;2886;49.722;8.612;2022-09-19T01:06:41;7.80;99.90
5723;DHT22;2886;49.722;8.612;2022-09-19T01:09:20;7.90;99.90
5723;DHT22;2886;49.722;8.612;2022-09-19T01:23:05;8.30;99.90
5723;DHT22;2886;49.722;8.612;2022-09-19T01:25:55;8.30;99.90
5723;DHT22;2886;49.722;8.612;2022-09-19T01:28:36;8.40;99.90
5723;DHT22;2886;49.722;8.612;2022-09-19T01:31:21;8.40;99.90
5723;DHT22;2886;49.722;8.612;2022-09-19T01:34:05;8.50;99.90
5723;DHT22;2886;49.722;8.612;2022-09-19T01:36:42;8.40;99.90
5723;DHT22;2886;49.722;8.612;2022-09-19T01:39:11;8.40;99.90
5723;DHT22;2886;49.722;8.612;2022-09-19T01:41:37;8.50;99.90
5723;DHT22;2886;49.722;8.612;2022-09-19T01:44:05;8.50;99.90
5723;DHT22;2886;49.722;8.612;2022-09-19T01:49:19;8.50;99.90
5723;DHT22;2886;49.722;8.612;2022-09-19T01:51:56;8.50;99.90
5723;DHT22;2886;49.722;8.612;2022-09-19T02:00:15;8.70;99.90
5723;DHT22;2886;49.722;8.612;2022-09-19T02:05:33;8.70;99.90
5723;DHT22;2886;49.722;8.612;2022-09-19T02:10:45;8.70;99.90
5723;DHT22;2886;49.722;8.612;2022-09-19T02:13:16;8.70;99.90
5723;DHT22;2886;49.722;8.612;2022-09-19T02:15:47;8.70;99.90
5723;DHT22;2886;49.722;8.612;2022-09-19T02:18:24;8.70;99.90
5723;DHT22;2886;49.722;8.612;2022-09-19T02:20:56;8.70;99.90
5723;DHT22;2886;49.722;8.612;2022-09-19T02:23:28;8.70;99.90
5723;DHT22;2886;49.722;8.612;2022-09-19T02:25:56;8.80;99.90
5723;DHT22;2886;49.722;8.612;2022-09-19T02:28:28;8.80;99.90
5723;DHT22;2886;49.722;8.612;2022-09-19T02:30:56;8.90;99.90
5723;DHT22;2886;49.722;8.612;2022-09-19T02:33:22;8.90;99.90
5723;DHT22;2886;49.722;8.612;2022-09-19T02:36:01;8.90;99.90
5723;DHT22;2886;49.722;8.612;2022-09-19T02:41:44;8.90;99.90
5723;DHT22;2886;49.722;8.612;2022-09-19T02:44:16;9.00;99.90
5723;DHT22;2886;49.722;8.612;2022-09-19T02:47:13;9.00;99.90
5723;DHT22;2886;49.722;8.612;2022-09-19T02:49:52;9.00;99.90
5723;DHT22;2886;49.722;8.612;2022-09-19T02:52:30;9.00;99.90
5723;DHT22;2886;49.722;8.612;2022-09-19T02:55:18;9.00;99.90
5723;DHT22;2886;49.722;8.612;2022-09-19T02:57:47;9.00;99.90
5723;DHT22;2886;49.722;8.612;2022-09-19T03:00:15;9.00;99.90
5723;DHT22;2886;49.722;8.612;2022-09-19T03:02:45;9.00;99.90
5723;DHT22;2886;49.722;8.612;2022-09-19T03:05:19;9.10;99.90
5723;DHT22;2886;49.722;8.612;2022-09-19T03:08:11;9.00;99.90
5723;DHT22;2886;49.722;8.612;2022-09-19T03:10:43;9.00;99.90
5723;DHT22;2886;49.722;8.612;2022-09-19T03:13:12;9.00;99.90
5723;DHT22;2886;49.722;8.612;2022-09-19T03:15:54;9.10;99.90
5723;DHT22;2886;49.722;8.612;2022-09-19T03:18:23;9.00;99.90
5723;DHT22;2886;49.722;8.612;2022-09-19T03:20:58;9.10;99.90
5723;DHT22;2886;49.722;8.612;2022-09-19T03:23:31;9.20;99.90
5723;DHT22;2886;49.722;8.612;2022-09-19T03:25:58;9.10;99.90
5723;DHT22;2886;49.722;8.612;2022-09-19T03:28:27;9.20;99.90
5723;DHT22;2886;49.722;8.612;2022-09-19T03:30:53;9.20;99.90
5723;DHT22;2886;49.722;8.612;2022-09-19T03:33:22;9.20;99.90
5723;DHT22;2886;49.722;8.612;2022-09-19T03:35:48;9.20;99.90
5723;DHT22;2886;49.722;8.612;2022-09-19T03:38:16;9.20;99.90
5723;DHT22;2886;49.722;8.612;2022-09-19T03:40:42;9.20;99.90
5723;DHT22;2886;49.722;8.612;2022-09-19T03:43:08;9.20;99.90
5723;DHT22;2886;49.722;8.612;2022-09-19T03:45:33;9.20;99.90
5723;DHT22;2886;49.722;8.612;2022-09-19T03:47:59;9.20;99.90
5723;DHT22;2886;49.722;8.612;2022-09-19T03:50:25;9.20;99.90
5723;DHT22;2886;49.722;8.612;2022-09-19T03:52:51;9.20;99.90
5723;DHT22;2886;49.722;8.612;2022-09-19T03:55:19;9.30;99.90
5723;DHT22;2886;49.722;8.612;2022-09-19T03:57:49;9.30;99.90
5723;DHT22;2886;49.722;8.612;2022-09-19T04:00:15;9.30;99.90
5723;DHT22;2886;49.722;8.612;2022-09-19T04:02:41;9.30;99.90
5723;DHT22;2886;49.722;8.612;2022-09-19T04:05:07;9.30;99.90
5723;DHT22;2886;49.722;8.612;2022-09-19T04:07:33;9.30;99.90
5723;DHT22;2886;49.722;8.612;2022-09-19T04:09:58;9.30;99.90
5723;DHT22;2886;49.722;8.612;2022-09-19T04:12:24;9.30;99.90
5723;DHT22;2886;49.722;8.612;2022-09-19T04:14:50;9.30;99.90
5723;DHT22;2886;49.722;8.612;2022-09-19T04:17:16;9.30;99.90
5723;DHT22;2886;49.722;8.612;2022-09-19T04:19:42;9.30;99.90
5723;DHT22;2886;49.722;8.612;2022-09-19T04:22:09;9.30;99.90
5723;DHT22;2886;49.722;8.612;2022-09-19T04:24:35;9.30;99.90
5723;DHT22;2886;49.722;8.612;2022-09-19T04:27:05;9.40;99.90
5723;DHT22;2886;49.722;8.612;2022-09-19T04:29:33;9.30;99.90
5723;DHT22;2886;49.722;8.612;2022-09-19T04:32:00;9.40;99.90
5723;DHT22;2886;49.722;8.612;2022-09-19T04:34:29;9.40;99.90
5723;DHT22;2886;49.722;8.612;2022-09-19T04:36:56;9.40;99.90
5723;DHT22;2886;49.722;8.612;2022-09-19T04:39:25;9.30;99.90
5723;DHT22;2886;49.722;8.612;2022-09-19T04:41:51;9.40;99.90
5723;DHT22;2886;49.722;8.612;2022-09-19T04:44:18;9.40;99.90
5723;DHT22;2886;49.722;8.612;2022-09-19T04:46:45;9.50;99.90
5723;DHT22;2886;49.722;8.612;2022-09-19T04:49:12;9.50;99.90
5723;DHT22;2886;49.722;8.612;2022-09-19T04:51:39;9.50;99.90
5723;DHT22;2886;49.722;8.612;2022-09-19T04:54:04;9.50;99.90
5723;DHT22;2886;49.722;8.612;2022-09-19T04:56:31;9.50;99.90
5723;DHT22;2886;49.722;8.612;2022-09-19T04:58:58;9.50;99.90
5723;DHT22;2886;49.722;8.612;2022-09-19T05:01:27;9.60;99.90
5723;DHT22;2886;49.722;8.612;2022-09-19T05:03:55;9.60;99.90
5723;DHT22;2886;49.722;8.612;2022-09-19T05:06:20;9.60;99.90
5723;DHT22;2886;49.722;8.612;2022-09-19T05:08:46;9.60;99.90
5723;DHT22;2886;49.722;8.612;2022-09-19T05:11:12;9.70;99.90
5723;DHT22;2886;49.722;8.612;2022-09-19T05:13:38;9.60;99.90
5723;DHT22;2886;49.722;8.612;2022-09-19T05:16:05;9.60;99.90
5723;DHT22;2886;49.722;8.612;2022-09-19T05:18:31;9.60;99.90
5723;DHT22;2886;49.722;8.612;2022-09-19T05:21:05;9.60;99.90
5723;DHT22;2886;49.722;8.612;2022-09-19T05:23:32;9.60;99.90
5723;DHT22;2886;49.722;8.612;2022-09-19T05:26:02;9.60;99.90
5723;DHT22;2886;49.722;8.612;2022-09-19T05:28:28;9.60;99.90
5723;DHT22;2886;49.722;8.612;2022-09-19T05:30:54;9.70;99.90
5723;DHT22;2886;49.722;8.612;2022-09-19T05:33:24;9.70;99.90
5723;DHT22;2886;49.722;8.612;2022-09-19T05:35:54;9.70;99.90
5723;DHT22;2886;49.722;8.612;2022-09-19T05:38:22;9.70;99.90
5723;DHT22;2886;49.722;8.612;2022-09-19T05:40:51;9.80;99.90
5723;DHT22;2886;49.722;8.612;2022-09-19T05:43:17;9.80;99.90
5723;DHT22;2886;49.722;8.612;2022-09-19T05:45:43;9.80;99.90
5723;DHT22;2886;49.722;8.612;2022-09-19T05:48:09;9.90;99.90
5723;DHT22;2886;49.722;8.612;2022-09-19T05:50:36;9.80;99.90
5723;DHT22;2886;49.722;8.612;2022-09-19T05:53:03;9.90;99.90
5723;DHT22;2886;49.722;8.612;2022-09-19T05:55:48;9.90;99.90
5723;DHT22;2886;49.722;8.612;2022-09-19T05:58:14;9.90;99.90
5723;DHT22;2886;49.722;8.612;2022-09-19T06:00:43;9.90;99.90
5723;DHT22;2886;49.722;8.612;2022-09-19T06:03:12;9.90;99.90
5723;DHT22;2886;49.722;8.612;2022-09-19T06:05:42;9.90;99.90
5723;DHT22;2886;49.722;8.612;2022-09-19T06:08:09;10.00;99.90
5723;DHT22;2886;49.722;8.612;2022-09-19T06:10:37;10.10;99.90
5723;DHT22;2886;49.722;8.612;2022-09-19T06:13:05;10.10;99.90
5723;DHT22;2886;49.722;8.612;2022-09-19T06:15:31;10.10;99.90
5723;DHT22;2886;49.722;8.612;2022-09-19T06:17:57;10.10;99.90
5723;DHT22;2886;49.722;8.612;2022-09-19T06:20:23;10.20;99.90
5723;DHT22;2886;49.722;8.612;2022-09-19T06:22:54;10.20;99.90
5723;DHT22;2886;49.722;8.612;2022-09-19T06:25:21;10.20;99.90
5723;DHT22;2886;49.722;8.612;2022-09-19T06:27:57;10.10;99.90
5723;DHT22;2886;49.722;8.612;2022-09-19T06:30:23;10.20;99.90
5723;DHT22;2886;49.722;8.612;2022-09-19T06:32:50;10.20;99.90
5723;DHT22;2886;49.722;8.612;2022-09-19T06:35:17;10.30;99.90
5723;DHT22;2886;49.722;8.612;2022-09-19T06:37:43;10.30;99.90
5723;DHT22;2886;49.722;8.612;2022-09-19T06:40:09;10.30;99.90
5723;DHT22;2886;49.722;8.612;2022-09-19T06:42:36;10.30;99.90
5723;DHT22;2886;49.722;8.612;2022-09-19T06:45:02;10.40;99.90
5723;DHT22;2886;49.722;8.612;2022-09-19T06:47:34;10.50;99.90
5723;DHT22;2886;49.722;8.612;2022-09-19T06:50:02;10.50;99.90
5723;DHT22;2886;49.722;8.612;2022-09-19T06:52:28;10.60;99.90
5723;DHT22;2886;49.722;8.612;2022-09-19T06:54:54;10.70;99.90
5723;DHT22;2886;49.722;8.612;2022-09-19T06:57:20;10.60;99.90
5723;DHT22;2886;49.722;8.612;2022-09-19T06:59:46;10.80;99.90
5723;DHT22;2886;49.722;8.612;2022-09-19T07:02:12;11.00;99.90
5723;DHT22;2886;49.722;8.612;2022-09-19T07:04:39;11.10;99.90
5723;DHT22;2886;49.722;8.612;2022-09-19T07:07:05;11.20;99.90
5723;DHT22;2886;49.722;8.612;2022-09-19T07:09:31;11.20;99.90
5723;DHT22;2886;49.722;8.612;2022-09-19T07:11:57;11.30;99.90
5723;DHT22;2886;49.722;8.612;2022-09-19T07:14:23;11.30;99.90
5723;DHT22;2886;49.722;8.612;2022-09-19T07:16:49;11.40;99.90
5723;DHT22;2886;49.722;8.612;2022-09-19T07:19:15;11.40;99.90
5723;DHT22;2886;49.722;8.612;2022-09-19T07:21:42;11.50;99.90
5723;DHT22;2886;49.722;8.612;2022-09-19T07:24:08;11.50;99.90
5723;DHT22;2886;49.722;8.612;2022-09-19T07:26:34;11.40;99.90
5723;DHT22;2886;49.722;8.612;2022-09-19T07:29:00;11.30;99.90
5723;DHT22;2886;49.722;8.612;2022-09-19T07:31:27;11.30;99.90
5723;DHT22;2886;49.722;8.612;2022-09-19T07:33:53;11.50;99.90
5723;DHT22;2886;49.722;8.612;2022-09-19T07:36:19;11.50;99.90
5723;DHT22;2886;49.722;8.612;2022-09-19T07:38:48;11.60;99.90
5723;DHT22;2886;49.722;8.612;2022-09-19T07:41:14;11.70;99.90
5723;DHT22;2886;49.722;8.612;2022-09-19T07:43:41;11.70;99.90
5723;DHT22;2886;49.722;8.612;2022-09-19T07:46:06;11.50;99.90
5723;DHT22;2886;49.722;8.612;2022-09-19T07:48:32;11.50;99.90
5723;DHT22;2886;49.722;8.612;2022-09-19T07:50:58;11.40;99.90
5723;DHT22;2886;49.722;8.612;2022-09-19T07:53:24;11.50;99.90
5723;DHT22;2886;49.722;8.612;2022-09-19T07:55:51;11.60;99.90
5723;DHT22;2886;49.722;8.612;2022-09-19T07:58:19;11.70;99.90
5723;DHT22;2886;49.722;8.612;2022-09-19T08:00:45;11.90;99.90
5723;DHT22;2886;49.722;8.612;2022-09-19T08:03:17;12.10;99.90
5723;DHT22;2886;49.722;8.612;2022-09-19T08:05:45;12.20;99.90
5723;DHT22;2886;49.722;8.612;2022-09-19T08:08:13;12.00;99.90
5723;DHT22;2886;49.722;8.612;2022-09-19T08:10:40;12.00;99.90
5723;DHT22;2886;49.722;8.612;2022-09-19T08:13:07;12.00;99.90
5723;DHT22;2886;49.722;8.612;2022-09-19T08:15:35;12.00;99.90
5723;DHT22;2886;49.722;8.612;2022-09-19T08:18:03;12.10;99.90
5723;DHT22;2886;49.722;8.612;2022-09-19T08:20:31;12.10;99.90
5723;DHT22;2886;49.722;8.612;2022-09-19T08:23:00;12.00;99.90
5723;DHT22;2886;49.722;8.612;2022-09-19T08:25:28;12.00;99.90
5723;DHT22;2886;49.722;8.612;2022-09-19T08:27:54;12.10;99.90
5723;DHT22;2886;49.722;8.612;2022-09-19T08:30:21;12.30;99.90
5723;DHT22;2886;49.722;8.612;2022-09-19T08:32:48;12.50;99.90
5723;DHT22;2886;49.722;8.612;2022-09-19T08:35:16;12.40;99.90
5723;DHT22;2886;49.722;8.612;2022-09-19T08:37:43;12.40;99.90
5723;DHT22;2886;49.722;8.612;2022-09-19T08:40:23;12.30;99.90
5723;DHT22;2886;49.722;8.612;2022-09-19T08:48:04;12.30;99.90
5723;DHT22;2886;49.722;8.612;2022-09-19T08:50:34;12.30;99.90
5723;DHT22;2886;49.722;8.612;2022-09-19T08:53:04;12.30;99.90
5723;DHT22;2886;49.722;8.612;2022-09-19T08:55:35;12.20;99.90
5723;DHT22;2886;49.722;8.612;2022-09-19T08:58:06;12.30;99.90
5723;DHT22;2886;49.722;8.612;2022-09-19T09:00:39;12.30;99.90
5723;DHT22;2886;49.722;8.612;2022-09-19T09:03:09;12.30;99.90
5723;DHT22;2886;49.722;8.612;2022-09-19T09:11:45;12.20;99.90
5723;DHT22;2886;49.722;8.612;2022-09-19T09:17:33;12.30;99.90
5723;DHT22;2886;49.722;8.612;2022-09-19T09:20:26;12.30;99.90
5723;DHT22;2886;49.722;8.612;2022-09-19T09:23:08;12.40;99.90
5723;DHT22;2886;49.722;8.612;2022-09-19T09:25:40;12.60;99.90
5723;DHT22;2886;49.722;8.612;2022-09-19T09:33:56;13.10;99.90
5723;DHT22;2886;49.722;8.612;2022-09-19T09:36:28;12.80;99.90
5723;DHT22;2886;49.722;8.612;2022-09-19T09:41:38;12.60;99.90
5723;DHT22;2886;49.722;8.612;2022-09-19T09:49:10;12.90;99.90
5723;DHT22;2886;49.722;8.612;2022-09-19T09:52:11;13.00;99.90
5723;DHT22;2886;49.722;8.612;2022-09-19T10:00:32;13.40;99.90
5723;DHT22;2886;49.722;8.612;2022-09-19T10:03:35;13.40;99.90
5723;DHT22;2886;49.722;8.612;2022-09-19T10:11:24;13.80;99.90
5723;DHT22;2886;49.722;8.612;2022-09-19T10:13:54;13.60;99.90
5723;DHT22;2886;49.722;8.612;2022-09-19T10:16:29;13.60;99.90
5723;DHT22;2886;49.722;8.612;2022-09-19T10:19:08;14.10;99.90
5723;DHT22;2886;49.722;8.612;2022-09-19T10:21:37;14.70;99.90
5723;DHT22;2886;49.722;8.612;2022-09-19T10:25:07;14.80;99.90
5723;DHT22;2886;49.722;8.612;2022-09-19T10:27:18;14.90;99.90
5723;DHT22;2886;49.722;8.612;2022-09-19T10:30:13;14.70;99.90
5723;DHT22;2886;49.722;8.612;2022-09-19T10:32:41;14.50;99.90
5723;DHT22;2886;49.722;8.612;2022-09-19T10:35:31;14.50;99.90
5723;DHT22;2886;49.722;8.612;2022-09-19T10:38:16;14.20;99.90
5723;DHT22;2886;49.722;8.612;2022-09-19T10:40:59;14.10;99.90
5723;DHT22;2886;49.722;8.612;2022-09-19T10:43:48;14.30;99.90
5723;DHT22;2886;49.722;8.612;2022-09-19T10:46:35;14.30;99.90
5723;DHT22;2886;49.722;8.612;2022-09-19T10:49:13;14.30;99.90
5723;DHT22;2886;49.722;8.612;2022-09-19T10:51:45;14.00;99.90
5723;DHT22;2886;49.722;8.612;2022-09-19T10:54:33;13.90;99.90
5723;DHT22;2886;49.722;8.612;2022-09-19T10:59:55;13.80;99.90
5723;DHT22;2886;49.722;8.612;2022-09-19T11:02:27;13.90;99.90
5723;DHT22;2886;49.722;8.612;2022-09-19T11:05:01;14.20;99.90
5723;DHT22;2886;49.722;8.612;2022-09-19T11:07:30;14.30;99.90
5723;DHT22;2886;49.722;8.612;2022-09-19T11:09:58;14.40;99.90
5723;DHT22;2886;49.722;8.612;2022-09-19T11:12:30;14.20;99.90
5723;DHT22;2886;49.722;8.612;2022-09-19T11:14:57;14.10;99.90
5723;DHT22;2886;49.722;8.612;2022-09-19T11:20:38;14.30;99.90
5723;DHT22;2886;49.722;8.612;2022-09-19T11:34:03;14.60;99.90
5723;DHT22;2886;49.722;8.612;2022-09-19T11:42:55;14.90;99.90
5723;DHT22;2886;49.722;8.612;2022-09-19T11:45:26;14.90;99.90
5723;DHT22;2886;49.722;8.612;2022-09-19T11:48:10;15.00;99.90
5723;DHT22;2886;49.722;8.612;2022-09-19T12:01:42;16.00;99.90
5723;DHT22;2886;49.722;8.612;2022-09-19T12:04:41;16.00;99.90
5723;DHT22;2886;49.722;8.612;2022-09-19T12:07:21;16.50;99.90
5723;DHT22;2886;49.722;8.612;2022-09-19T12:12:28;17.00;95.50
5723;DHT22;2886;49.722;8.612;2022-09-19T12:15:16;17.20;91.00
5723;DHT22;2886;49.722;8.612;2022-09-19T12:17:50;17.10;91.00
5723;DHT22;2886;49.722;8.612;2022-09-19T12:20:29;17.30;84.50
5723;DHT22;2886;49.722;8.612;2022-09-19T12:26:02;17.10;85.70
5723;DHT22;2886;49.722;8.612;2022-09-19T12:28:35;17.00;89.70
5723;DHT22;2886;49.722;8.612;2022-09-19T12:31:04;17.10;91.90
5723;DHT22;2886;49.722;8.612;2022-09-19T12:38:58;17.40;87.30
5723;DHT22;2886;49.722;8.612;2022-09-19T12:46:43;17.70;93.10
5723;DHT22;2886;49.722;8.612;2022-09-19T12:49:31;17.60;90.60
5723;DHT22;2886;49.722;8.612;2022-09-19T12:52:24;17.50;85.30
5723;DHT22;2886;49.722;8.612;2022-09-19T12:57:59;17.40;94.80
5723;DHT22;2886;49.722;8.612;2022-09-19T13:00:27;17.50;93.70
5723;DHT22;2886;49.722;8.612;2022-09-19T13:03:32;17.20;92.80
5723;DHT22;2886;49.722;8.612;2022-09-19T13:05:57;17.40;94.20
5723;DHT22;2886;49.722;8.612;2022-09-19T13:08:35;17.20;93.90
5723;DHT22;2886;49.722;8.612;2022-09-19T13:13:52;16.70;98.40
5723;DHT22;2886;49.722;8.612;2022-09-19T13:16:21;16.80;99.90
5723;DHT22;2886;49.722;8.612;2022-09-19T13:18:54;16.80;99.80
5723;DHT22;2886;49.722;8.612;2022-09-19T13:21:45;16.80;99.90
5723;DHT22;2886;49.722;8.612;2022-09-19T13:27:08;17.10;99.90
5723;DHT22;2886;49.722;8.612;2022-09-19T13:32:09;17.40;97.60
5723;DHT22;2886;49.722;8.612;2022-09-19T13:34:59;17.50;98.20
5723;DHT22;2886;49.722;8.612;2022-09-19T13:40:23;17.90;85.80
5723;DHT22;2886;49.722;8.612;2022-09-19T13:51:10;17.30;78.80
5723;DHT22;2886;49.722;8.612;2022-09-19T13:53:43;17.10;87.40
5723;DHT22;2886;49.722;8.612;2022-09-19T13:56:32;17.20;91.30
5723;DHT22;2886;49.722;8.612;2022-09-19T13:59:24;17.20;92.50
5723;DHT22;2886;49.722;8.612;2022-09-19T14:02:18;17.30;94.70
5723;DHT22;2886;49.722;8.612;2022-09-19T14:10:02;17.10;98.90
5723;DHT22;2886;49.722;8.612;2022-09-19T14:23:14;17.10;91.00
5723;DHT22;2886;49.722;8.612;2022-09-19T14:25:43;17.10;90.40
5723;DHT22;2886;49.722;8.612;2022-09-19T14:40:25;17.10;92.20
5723;DHT22;2886;49.722;8.612;2022-09-19T14:43:14;17.10;82.70
5723;DHT22;2886;49.722;8.612;2022-09-19T14:48:28;16.80;86.70
5723;DHT22;2886;49.722;8.612;2022-09-19T14:54:23;17.00;90.10
5723;DHT22;2886;49.722;8.612;2022-09-19T14:57:03;17.30;80.60
5723;DHT22;2886;49.722;8.612;2022-09-19T14:59:31;17.30;75.40
5723;DHT22;2886;49.722;8.612;2022-09-19T15:02:17;17.20;84.20
5723;DHT22;2886;49.722;8.612;2022-09-19T15:04:47;17.40;86.50
5723;DHT22;2886;49.722;8.612;2022-09-19T15:07:24;17.50;83.40
5723;DHT22;2886;49.722;8.612;2022-09-19T15:09:50;17.70;76.70
5723;DHT22;2886;49.722;8.612;2022-09-19T15:12:22;17.70;71.20
5723;DHT22;2886;49.722;8.612;2022-09-19T15:14:50;17.60;78.00
5723;DHT22;2886;49.722;8.612;2022-09-19T15:17:21;17.60;82.20
5723;DHT22;2886;49.722;8.612;2022-09-19T15:19:57;17.70;79.50
5723;DHT22;2886;49.722;8.612;2022-09-19T15:22:33;17.60;77.00
5723;DHT22;2886;49.722;8.612;2022-09-19T15:28:02;17.10;83.50
5723;DHT22;2886;49.722;8.612;2022-09-19T15:30:33;17.00;89.80
5723;DHT22;2886;49.722;8.612;2022-09-19T15:33:19;17.20;88.30
5723;DHT22;2886;49.722;8.612;2022-09-19T15:35:46;17.10;84.30
5723;DHT22;2886;49.722;8.612;2022-09-19T15:38:33;16.80;86.80
5723;DHT22;2886;49.722;8.612;2022-09-19T15:41:01;16.50;91.40
5723;DHT22;2886;49.722;8.612;2022-09-19T15:43:29;16.30;91.40
5723;DHT22;2886;49.722;8.612;2022-09-19T15:46:01;16.30;88.90
5723;DHT22;2886;49.722;8.612;2022-09-19T15:48:47;16.20;86.70
5723;DHT22;2886;49.722;8.612;2022-09-19T15:53:53;16.00;87.50
5723;DHT22;2886;49.722;8.612;2022-09-19T15:56:20;15.90;87.50
5723;DHT22;2886;49.722;8.612;2022-09-19T15:59:09;15.90;90.00
5723;DHT22;2886;49.722;8.612;2022-09-19T16:01:45;15.80;88.80
5723;DHT22;2886;49.722;8.612;2022-09-19T16:04:19;15.70;89.80
5723;DHT22;2886;49.722;8.612;2022-09-19T16:09:36;15.60;87.60
5723;DHT22;2886;49.722;8.612;2022-09-19T16:12:32;15.60;89.60
5723;DHT22;2886;49.722;8.612;2022-09-19T16:15:08;15.50;87.40
5723;DHT22;2886;49.722;8.612;2022-09-19T16:22:59;15.40;86.80
5723;DHT22;2886;49.722;8.612;2022-09-19T16:25:27;15.40;91.70
5723;DHT22;2886;49.722;8.612;2022-09-19T16:27:58;15.40;91.20
5723;DHT22;2886;49.722;8.612;2022-09-19T16:30:24;15.40;90.00
5723;DHT22;2886;49.722;8.612;2022-09-19T16:32:50;15.40;90.10
5723;DHT22;2886;49.722;8.612;2022-09-19T16:35:17;15.40;90.20
5723;DHT22;2886;49.722;8.612;2022-09-19T16:37:44;15.60;84.20
5723;DHT22;2886;49.722;8.612;2022-09-19T16:40:23;15.60;85.00
5723;DHT22;2886;49.722;8.612;2022-09-19T16:42:51;15.50;86.10
5723;DHT22;2886;49.722;8.612;2022-09-19T16:45:22;15.50;86.70
5723;DHT22;2886;49.722;8.612;2022-09-19T16:47:49;15.40;89.80
5723;DHT22;2886;49.722;8.612;2022-09-19T16:50:21;15.40;92.60
5723;DHT22;2886;49.722;8.612;2022-09-19T16:52:51;15.40;92.70
5723;DHT22;2886;49.722;8.612;2022-09-19T16:55:24;15.30;94.00
5723;DHT22;2886;49.722;8.612;2022-09-19T16:57:59;15.30;95.70
5723;DHT22;2886;49.722;8.612;2022-09-19T17:00:26;15.30;95.30
5723;DHT22;2886;49.722;8.612;2022-09-19T17:02:53;15.40;96.40
5723;DHT22;2886;49.722;8.612;2022-09-19T17:05:42;15.40;93.70
5723;DHT22;2886;49.722;8.612;2022-09-19T17:08:07;15.30;96.10
5723;DHT22;2886;49.722;8.612;2022-09-19T17:10:33;15.30;95.80
5723;DHT22;2886;49.722;8.612;2022-09-19T17:12:59;15.30;94.20
5723;DHT22;2886;49.722;8.612;2022-09-19T17:17:51;15.20;97.10
5723;DHT22;2886;49.722;8.612;2022-09-19T17:20:17;14.90;99.90
5723;DHT22;2886;49.722;8.612;2022-09-19T17:22:43;14.80;99.90
5723;DHT22;2886;49.722;8.612;2022-09-19T17:28:07;14.60;99.90
5723;DHT22;2886;49.722;8.612;2022-09-19T17:30:34;14.60;99.90
5723;DHT22;2886;49.722;8.612;2022-09-19T17:32:59;14.50;99.90
5723;DHT22;2886;49.722;8.612;2022-09-19T17:35:25;14.50;99.90
5723;DHT22;2886;49.722;8.612;2022-09-19T17:37:52;14.50;99.90
5723;DHT22;2886;49.722;8.612;2022-09-19T17:40:18;14.50;99.90
5723;DHT22;2886;49.722;8.612;2022-09-19T17:42:46;14.30;99.90
5723;DHT22;2886;49.722;8.612;2022-09-19T17:45:14;14.20;99.90
5723;DHT22;2886;49.722;8.612;2022-09-19T17:47:42;14.20;99.90
5723;DHT22;2886;49.722;8.612;2022-09-19T17:50:08;14.20;99.90
5723;DHT22;2886;49.722;8.612;2022-09-19T17:52:35;14.10;99.90
5723;DHT22;2886;49.722;8.612;2022-09-19T17:55:02;14.10;99.90
5723;DHT22;2886;49.722;8.612;2022-09-19T17:57:27;14.00;99.90
5723;DHT22;2886;49.722;8.612;2022-09-19T17:59:53;14.00;99.90
5723;DHT22;2886;49.722;8.612;2022-09-19T18:02:19;14.00;99.90
5723;DHT22;2886;49.722;8.612;2022-09-19T18:05:03;14.00;99.90
5723;DHT22;2886;49.722;8.612;2022-09-19T18:07:29;14.00;99.90
5723;DHT22;2886;49.722;8.612;2022-09-19T18:09:59;14.00;99.90
5723;DHT22;2886;49.722;8.612;2022-09-19T18:12:24;14.00;99.90
5723;DHT22;2886;49.722;8.612;2022-09-19T18:14:50;14.00;99.90
5723;DHT22;2886;49.722;8.612;2022-09-19T18:17:16;14.00;99.90
5723;DHT22;2886;49.722;8.612;2022-09-19T18:19:51;14.00;99.90
5723;DHT22;2886;49.722;8.612;2022-09-19T18:22:17;14.00;99.90
5723;DHT22;2886;49.722;8.612;2022-09-19T18:24:44;14.00;99.90
5723;DHT22;2886;49.722;8.612;2022-09-19T18:27:10;13.90;99.90
5723;DHT22;2886;49.722;8.612;2022-09-19T18:29:39;13.90;99.90
5723;DHT22;2886;49.722;8.612;2022-09-19T18:32:05;13.90;99.90
5723;DHT22;2886;49.722;8.612;2022-09-19T18:34:31;13.90;99.90
5723;DHT22;2886;49.722;8.612;2022-09-19T18:36:57;13.80;99.90
5723;DHT22;2886;49.722;8.612;2022-09-19T18:39:22;13.80;99.90
5723;DHT22;2886;49.722;8.612;2022-09-19T18:41:48;13.80;99.90
5723;DHT22;2886;49.722;8.612;2022-09-19T18:44:13;13.80;99.90
5723;DHT22;2886;49.722;8.612;2022-09-19T18:46:39;13.90;99.90
5723;DHT22;2886;49.722;8.612;2022-09-19T18:49:05;13.80;99.90
5723;DHT22;2886;49.722;8.612;2022-09-19T18:51:31;13.80;99.90
5723;DHT22;2886;49.722;8.612;2022-09-19T18:53:57;13.70;99.90
5723;DHT22;2886;49.722;8.612;2022-09-19T18:56:27;13.60;99.90
5723;DHT22;2886;49.722;8.612;2022-09-19T18:58:54;13.50;99.90
5723;DHT22;2886;49.722;8.612;2022-09-19T19:01:22;13.50;99.90
5723;DHT22;2886;49.722;8.612;2022-09-19T19:03:54;13.50;99.90
5723;DHT22;2886;49.722;8.612;2022-09-19T19:06:21;13.50;99.90
5723;DHT22;2886;49.722;8.612;2022-09-19T19:08:49;13.40;99.90
5723;DHT22;2886;49.722;8.612;2022-09-19T19:11:19;13.40;99.90
5723;DHT22;2886;49.722;8.612;2022-09-19T19:13:45;13.40;99.90
5723;DHT22;2886;49.722;8.612;2022-09-19T19:16:15;13.40;99.90
5723;DHT22;2886;49.722;8.612;2022-09-19T19:18:43;13.40;99.90
5723;DHT22;2886;49.722;8.612;2022-09-19T19:21:12;13.40;99.90
5723;DHT22;2886;49.722;8.612;2022-09-19T19:23:41;13.30;99.90
5723;DHT22;2886;49.722;8.612;2022-09-19T19:26:07;13.20;99.90
5723;DHT22;2886;49.722;8.612;2022-09-19T19:28:34;13.20;99.90
5723;DHT22;2886;49.722;8.612;2022-09-19T19:31:01;13.10;99.90
5723;DHT22;2886;49.722;8.612;2022-09-19T19:33:27;13.00;99.90
5723;DHT22;2886;49.722;8.612;2022-09-19T19:38:31;12.90;99.90
5723;DHT22;2886;49.722;8.612;2022-09-19T19:41:01;12.90;99.90
5723;DHT22;2886;49.722;8.612;2022-09-19T19:43:28;12.80;99.90
5723;DHT22;2886;49.722;8.612;2022-09-19T19:45:54;12.80;99.90
5723;DHT22;2886;49.722;8.612;2022-09-19T19:48:22;12.70;99.90
5723;DHT22;2886;49.722;8.612;2022-09-19T19:50:55;12.70;99.90